Current Weather

Lewis University

Chicago/Romeoville, Illinois (KLOT)

Report from: Wednesday, September 28, 2022 3:15 AM CDT
Current time: Wednesday, September 28, 2022 3:46 AM CDT

Nearby weather
Weather history
Weather forecast

Temperature7.0°C (44.6°F)
Wind chill4.9°C (40.7°F)
Dew point5.0°C (41.0°F)
Winds 6 kts (3.1 m/s, 6.9 mph) North-Northwest (330°)
Visibility10 mi. (16.1 km)
Clouds Ceiling: Broken clouds 5,500 ft. (1,676 m)
Altimeter30.34 in.Hg (1027 mB)
Relative humidity87 %
Density altitude-1,315 ft. (-401 m)
Remarks Fully automated report
Automated weather observing station with precipitation discriminator
Flight conditions Visual Meteorological Conditions
Raw dataKLOT 280815Z AUTO 33006KT 10SM BKN055 07/05 A3034 RMK AO2
An error has occurred. This application may no longer respond until reloaded. Reload 🗙